Terminal Aerodrome Forecast
Issued by NWS

Home | Current Version | Previous Version | Text Only | Print | Product List | Glossary On
Versions: 1 2 3 4 5 6 7 8 9 10 11 12 13 14 15
000
FTUS43 KSGF 191700
TAFBBG
TAF
KBBG 191737Z 1918/2018 25010KT P6SM SCT035 BKN100
     FM192000 27008KT P6SM VCSH BKN035
      TEMPO 1921/1924 VRB25KT 3SM -TSRA BR BKN025CB
     FM200300 30013G22KT P6SM OVC015
     FM201300 30010KT P6SM SKC=

USA.gov is the U.S. government's official web portal to all federal, state and local government web resources and services.